NV12XP EGGP-EGPH
Flight info
| Callsign | NV12XP |
|---|---|
| Flight time | N/A |
| Altitude | 8000 |
| Route | POL N601 INPIP |
| Aircraft | AEST/L-SDFGRY/S |
Departure
| Time | 2026-05-06 12:45 |
|---|---|
| Airport | Liverpool John Lennon Airport (EGGP) |
Arrival
| Time | N/A |
|---|---|
| Airport | Edinburgh Airport (EGPH) |
| Time | Latitude | Longitude | Altitude | Speed | Heading |
|---|---|---|---|---|---|
| 2026-05-06 12:09 | 53.33675 | -2.83842 | 85 ft | 0 kts | 85° |
| 2026-05-06 12:35 | 53.33662 | -2.83800 | 84 ft | 10 kts | 175° |
| 2026-05-06 12:35 | 53.33578 | -2.83824 | 83 ft | 16 kts | 257° |
| 2026-05-06 12:35 | 53.33570 | -2.84054 | 83 ft | 23 kts | 265° |
| 2026-05-06 12:36 | 53.33557 | -2.84346 | 83 ft | 25 kts | 265° |
| 2026-05-06 12:36 | 53.33543 | -2.84632 | 82 ft | 23 kts | 265° |
| 2026-05-06 12:36 | 53.33532 | -2.84899 | 81 ft | 22 kts | 268° |
| 2026-05-06 12:36 | 53.33520 | -2.85159 | 79 ft | 22 kts | 263° |
| 2026-05-06 12:37 | 53.33510 | -2.85410 | 78 ft | 21 kts | 266° |
| 2026-05-06 12:37 | 53.33497 | -2.85661 | 78 ft | 21 kts | 265° |
| 2026-05-06 12:37 | 53.33485 | -2.85916 | 73 ft | 22 kts | 265° |
| 2026-05-06 12:37 | 53.33474 | -2.86180 | 70 ft | 22 kts | 262° |
| 2026-05-06 12:38 | 53.33456 | -2.86410 | 66 ft | 14 kts | 227° |
| 2026-05-06 12:38 | 53.33393 | -2.86427 | 64 ft | 7 kts | 176° |
| 2026-05-06 12:38 | 53.33391 | -2.86427 | 64 ft | 0 kts | 176° |
| 2026-05-06 12:43 | 53.33389 | -2.86427 | 64 ft | 3 kts | 174° |
| 2026-05-06 12:43 | 53.33333 | -2.86406 | 64 ft | 13 kts | 141° |
| 2026-05-06 12:44 | 53.33307 | -2.86243 | 64 ft | 21 kts | 86° |
| 2026-05-06 12:44 | 53.33336 | -2.85578 | 74 ft | 91 kts | 85° |
| 2026-05-06 12:44 | 53.33390 | -2.84414 | 240 ft | 104 kts | 84° |
| 2026-05-06 12:44 | 53.33438 | -2.83218 | 618 ft | 105 kts | 85° |
| 2026-05-06 12:45 | 53.33502 | -2.81955 | 1078 ft | 112 kts | 83° |
| 2026-05-06 12:45 | 53.33586 | -2.80646 | 1532 ft | 119 kts | 83° |
| 2026-05-06 12:45 | 53.33920 | -2.77880 | 2466 ft | 131 kts | 51° |
| 2026-05-06 12:46 | 53.34766 | -2.77363 | 2883 ft | 142 kts | 354° |
| 2026-05-06 12:46 | 53.35710 | -2.77689 | 3526 ft | 136 kts | 352° |
| 2026-05-06 12:46 | 53.36637 | -2.78021 | 4060 ft | 140 kts | 351° |
| 2026-05-06 12:46 | 53.37572 | -2.78449 | 4636 ft | 143 kts | 337° |
| 2026-05-06 12:47 | 53.38484 | -2.79129 | 5181 ft | 146 kts | 342° |
| 2026-05-06 12:47 | 53.39428 | -2.79488 | 5893 ft | 137 kts | 351° |
| 2026-05-06 12:47 | 53.40391 | -2.79678 | 6414 ft | 145 kts | 354° |
| 2026-05-06 12:47 | 53.41391 | -2.79828 | 7023 ft | 146 kts | 356° |
| 2026-05-06 12:48 | 53.42412 | -2.79923 | 7533 ft | 150 kts | 358° |
| 2026-05-06 12:48 | 53.43436 | -2.79939 | 8172 ft | 147 kts | 0° |
| 2026-05-06 12:48 | 53.44443 | -2.80068 | 8740 ft | 149 kts | 346° |
| 2026-05-06 12:48 | 53.45418 | -2.80481 | 9371 ft | 147 kts | 349° |
| 2026-05-06 12:49 | 53.46378 | -2.80114 | 10014 ft | 148 kts | 33° |
| 2026-05-06 12:49 | 53.46912 | -2.78706 | 10662 ft | 150 kts | 73° |
| 2026-05-06 12:49 | 53.47075 | -2.76961 | 11253 ft | 156 kts | 79° |
| 2026-05-06 12:49 | 53.47230 | -2.75133 | 11751 ft | 166 kts | 73° |
| 2026-05-06 12:50 | 53.47637 | -2.73275 | 12234 ft | 175 kts | 60° |
| 2026-05-06 12:50 | 53.48252 | -2.71445 | 12710 ft | 184 kts | 53° |
| 2026-05-06 12:50 | 53.48965 | -2.69647 | 13177 ft | 192 kts | 51° |
| 2026-05-06 12:50 | 53.49752 | -2.67776 | 13648 ft | 200 kts | 50° |
| 2026-05-06 12:51 | 53.50573 | -2.65866 | 14111 ft | 206 kts | 50° |
| 2026-05-06 12:51 | 53.51423 | -2.63903 | 14582 ft | 213 kts | 51° |
| 2026-05-06 12:51 | 53.52300 | -2.61878 | 15043 ft | 218 kts | 50° |
| 2026-05-06 12:51 | 53.53203 | -2.59789 | 15512 ft | 223 kts | 50° |
| 2026-05-06 12:52 | 53.54113 | -2.57672 | 15974 ft | 228 kts | 50° |
| 2026-05-06 12:52 | 53.55074 | -2.55452 | 16043 ft | 245 kts | 50° |
| 2026-05-06 12:52 | 53.56101 | -2.53072 | 16036 ft | 255 kts | 51° |
| 2026-05-06 12:52 | 53.57133 | -2.50673 | 16036 ft | 257 kts | 51° |
| 2026-05-06 12:53 | 53.58177 | -2.48251 | 16024 ft | 256 kts | 50° |
| 2026-05-06 12:53 | 53.59217 | -2.45836 | 16011 ft | 254 kts | 50° |
| 2026-05-06 12:53 | 53.60259 | -2.43414 | 16022 ft | 253 kts | 50° |
| 2026-05-06 12:53 | 53.61285 | -2.41023 | 16016 ft | 253 kts | 51° |
| 2026-05-06 12:54 | 53.62316 | -2.38622 | 16018 ft | 253 kts | 51° |
| 2026-05-06 12:54 | 53.63340 | -2.36233 | 16011 ft | 253 kts | 51° |
| 2026-05-06 12:54 | 53.64375 | -2.33819 | 16009 ft | 254 kts | 51° |
| 2026-05-06 12:54 | 53.65417 | -2.31380 | 16009 ft | 256 kts | 51° |
| 2026-05-06 12:55 | 53.66451 | -2.28962 | 16005 ft | 257 kts | 51° |
| 2026-05-06 12:55 | 53.67497 | -2.26516 | 16010 ft | 257 kts | 51° |
| 2026-05-06 12:55 | 53.68542 | -2.24055 | 16013 ft | 258 kts | 51° |
| 2026-05-06 12:55 | 53.69593 | -2.21604 | 16012 ft | 258 kts | 51° |
| 2026-05-06 12:56 | 53.70638 | -2.19151 | 16007 ft | 258 kts | 51° |
| 2026-05-06 12:56 | 53.71682 | -2.16697 | 16003 ft | 258 kts | 52° |
| 2026-05-06 12:56 | 53.72724 | -2.14248 | 16002 ft | 258 kts | 52° |
| 2026-05-06 12:56 | 53.73956 | -2.12135 | 15984 ft | 252 kts | 24° |
| 2026-05-06 12:57 | 53.75625 | -2.11740 | 16009 ft | 244 kts | 349° |
| 2026-05-06 12:57 | 53.77247 | -2.12500 | 16017 ft | 243 kts | 340° |
| 2026-05-06 12:57 | 53.78836 | -2.13463 | 16012 ft | 243 kts | 338° |
| 2026-05-06 12:57 | 53.80409 | -2.14482 | 16015 ft | 243 kts | 337° |
| 2026-05-06 12:58 | 53.81982 | -2.15531 | 16006 ft | 244 kts | 336° |
| 2026-05-06 12:58 | 53.83543 | -2.16584 | 16004 ft | 243 kts | 336° |
| 2026-05-06 12:58 | 53.85117 | -2.17654 | 16008 ft | 243 kts | 336° |
| 2026-05-06 12:58 | 53.86675 | -2.18715 | 16009 ft | 243 kts | 336° |
| 2026-05-06 12:59 | 53.88239 | -2.19785 | 16011 ft | 242 kts | 336° |
| 2026-05-06 12:59 | 53.89809 | -2.20858 | 16023 ft | 243 kts | 336° |
| 2026-05-06 12:59 | 53.91363 | -2.21923 | 16017 ft | 243 kts | 336° |
| 2026-05-06 12:59 | 53.92939 | -2.23003 | 16011 ft | 243 kts | 336° |
| 2026-05-06 13:00 | 53.94508 | -2.24079 | 16016 ft | 243 kts | 336° |
| 2026-05-06 13:00 | 53.96068 | -2.25151 | 16010 ft | 243 kts | 336° |
| 2026-05-06 13:00 | 53.97621 | -2.26218 | 16018 ft | 243 kts | 336° |
| 2026-05-06 13:00 | 53.99202 | -2.27306 | 16021 ft | 243 kts | 336° |
| 2026-05-06 13:01 | 54.00759 | -2.28378 | 16024 ft | 244 kts | 336° |
| 2026-05-06 13:01 | 54.02336 | -2.29466 | 16019 ft | 244 kts | 336° |
| 2026-05-06 13:01 | 54.03897 | -2.30541 | 16021 ft | 244 kts | 336° |
| 2026-05-06 13:01 | 54.05475 | -2.31630 | 16013 ft | 244 kts | 336° |
| 2026-05-06 13:02 | 54.07041 | -2.32712 | 16015 ft | 244 kts | 336° |
| 2026-05-06 13:02 | 54.08617 | -2.33803 | 16010 ft | 244 kts | 336° |
| 2026-05-06 13:02 | 54.10182 | -2.34884 | 16010 ft | 244 kts | 336° |
| 2026-05-06 13:02 | 54.11760 | -2.35977 | 16009 ft | 244 kts | 336° |
| 2026-05-06 13:03 | 54.13338 | -2.37070 | 16006 ft | 244 kts | 336° |
| 2026-05-06 13:03 | 54.14922 | -2.38172 | 16003 ft | 245 kts | 336° |
| 2026-05-06 13:03 | 54.16502 | -2.39270 | 16003 ft | 247 kts | 336° |
| 2026-05-06 13:03 | 54.18100 | -2.40370 | 16000 ft | 249 kts | 336° |
| 2026-05-06 13:04 | 54.19691 | -2.41476 | 15998 ft | 250 kts | 336° |
| 2026-05-06 13:04 | 54.21296 | -2.42595 | 15997 ft | 250 kts | 336° |
| 2026-05-06 13:04 | 54.22908 | -2.43717 | 15997 ft | 251 kts | 336° |
| 2026-05-06 13:04 | 54.24533 | -2.44851 | 15995 ft | 251 kts | 336° |
| 2026-05-06 13:05 | 54.26134 | -2.45968 | 15995 ft | 251 kts | 336° |
| 2026-05-06 13:05 | 54.27750 | -2.47096 | 15998 ft | 251 kts | 336° |
| 2026-05-06 13:05 | 54.29371 | -2.48230 | 15997 ft | 251 kts | 336° |
| 2026-05-06 13:05 | 54.30997 | -2.49367 | 15998 ft | 251 kts | 336° |
| 2026-05-06 13:06 | 54.32612 | -2.50498 | 16001 ft | 251 kts | 336° |
| 2026-05-06 13:06 | 54.34208 | -2.51615 | 16002 ft | 251 kts | 336° |
| 2026-05-06 13:06 | 54.35838 | -2.52758 | 16003 ft | 251 kts | 336° |
| 2026-05-06 13:06 | 54.37441 | -2.53884 | 16004 ft | 251 kts | 336° |
| 2026-05-06 13:07 | 54.39068 | -2.55027 | 16007 ft | 252 kts | 336° |
| 2026-05-06 13:07 | 54.40675 | -2.56156 | 16005 ft | 252 kts | 336° |
| 2026-05-06 13:07 | 54.42303 | -2.57301 | 16005 ft | 252 kts | 336° |
| 2026-05-06 13:07 | 54.43912 | -2.58435 | 16007 ft | 252 kts | 336° |
| 2026-05-06 13:08 | 54.45525 | -2.59571 | 16007 ft | 252 kts | 336° |
| 2026-05-06 13:08 | 54.47158 | -2.60723 | 16006 ft | 252 kts | 336° |
| 2026-05-06 13:08 | 54.48770 | -2.61862 | 16005 ft | 252 kts | 336° |
| 2026-05-06 13:08 | 54.50391 | -2.63007 | 16005 ft | 252 kts | 336° |
| 2026-05-06 13:09 | 54.52020 | -2.64159 | 16003 ft | 252 kts | 336° |
| 2026-05-06 13:09 | 54.53636 | -2.65307 | 16005 ft | 253 kts | 335° |
| 2026-05-06 13:09 | 54.55271 | -2.66466 | 16005 ft | 255 kts | 335° |
| 2026-05-06 13:09 | 54.56905 | -2.67624 | 16005 ft | 256 kts | 335° |
| 2026-05-06 13:10 | 54.58537 | -2.68782 | 16005 ft | 257 kts | 335° |
| 2026-05-06 13:10 | 54.60207 | -2.69967 | 16007 ft | 258 kts | 335° |
| 2026-05-06 13:10 | 54.61863 | -2.71144 | 16007 ft | 258 kts | 335° |
| 2026-05-06 13:10 | 54.63521 | -2.72325 | 16007 ft | 257 kts | 335° |
| 2026-05-06 13:11 | 54.65152 | -2.73486 | 16008 ft | 256 kts | 335° |
| 2026-05-06 13:11 | 54.66794 | -2.74656 | 16010 ft | 255 kts | 335° |
| 2026-05-06 13:11 | 54.68438 | -2.75831 | 16011 ft | 254 kts | 335° |
| 2026-05-06 13:11 | 54.70064 | -2.76991 | 16013 ft | 254 kts | 335° |
| 2026-05-06 13:12 | 54.71694 | -2.78156 | 16016 ft | 254 kts | 335° |
| 2026-05-06 13:12 | 54.73328 | -2.79326 | 16016 ft | 254 kts | 335° |
| 2026-05-06 13:12 | 54.74954 | -2.80489 | 16020 ft | 254 kts | 335° |
| 2026-05-06 13:12 | 54.76569 | -2.81647 | 16018 ft | 254 kts | 335° |
| 2026-05-06 13:13 | 54.78210 | -2.82823 | 16019 ft | 254 kts | 335° |
| 2026-05-06 13:13 | 54.79820 | -2.83980 | 16019 ft | 254 kts | 335° |
| 2026-05-06 13:13 | 54.81455 | -2.85155 | 16021 ft | 254 kts | 335° |
| 2026-05-06 13:13 | 54.83075 | -2.86320 | 16021 ft | 254 kts | 335° |
| 2026-05-06 13:14 | 54.84707 | -2.87494 | 16023 ft | 254 kts | 335° |
| 2026-05-06 13:14 | 54.86342 | -2.88672 | 16023 ft | 254 kts | 335° |
| 2026-05-06 13:14 | 54.87984 | -2.89855 | 16019 ft | 254 kts | 335° |
| 2026-05-06 13:14 | 54.89611 | -2.91029 | 16023 ft | 254 kts | 335° |
| 2026-05-06 13:15 | 54.91224 | -2.92194 | 16024 ft | 254 kts | 335° |
| 2026-05-06 13:15 | 54.92857 | -2.93374 | 16023 ft | 254 kts | 335° |
| 2026-05-06 13:15 | 54.94496 | -2.94560 | 16025 ft | 254 kts | 335° |
| 2026-05-06 13:15 | 54.96133 | -2.95745 | 16027 ft | 254 kts | 335° |
| 2026-05-06 13:16 | 54.97757 | -2.96923 | 16025 ft | 254 kts | 335° |
| 2026-05-06 13:16 | 54.99390 | -2.98108 | 16028 ft | 255 kts | 335° |
| 2026-05-06 13:16 | 55.01026 | -2.99295 | 16028 ft | 255 kts | 335° |
| 2026-05-06 13:16 | 55.02639 | -3.00467 | 16025 ft | 255 kts | 335° |
| 2026-05-06 13:17 | 55.04271 | -3.01654 | 16030 ft | 255 kts | 335° |
| 2026-05-06 13:17 | 55.05908 | -3.02846 | 16028 ft | 255 kts | 335° |
| 2026-05-06 13:17 | 55.07533 | -3.04031 | 16023 ft | 254 kts | 335° |
| 2026-05-06 13:17 | 55.09167 | -3.05222 | 16031 ft | 254 kts | 335° |
| 2026-05-06 13:18 | 55.10804 | -3.06416 | 16029 ft | 254 kts | 335° |
| 2026-05-06 13:18 | 55.12430 | -3.07603 | 16028 ft | 254 kts | 335° |
| 2026-05-06 13:18 | 55.14059 | -3.08793 | 16022 ft | 254 kts | 335° |
| 2026-05-06 13:18 | 55.15691 | -3.09992 | 16027 ft | 254 kts | 335° |
| 2026-05-06 13:19 | 55.17329 | -3.11189 | 16021 ft | 255 kts | 335° |
| 2026-05-06 13:19 | 55.18962 | -3.12260 | 15969 ft | 253 kts | 339° |
| 2026-05-06 13:19 | 55.20633 | -3.13251 | 15772 ft | 255 kts | 340° |
| 2026-05-06 13:19 | 55.22321 | -3.14202 | 15606 ft | 251 kts | 341° |
| 2026-05-06 13:20 | 55.23935 | -3.15030 | 15792 ft | 237 kts | 342° |
| 2026-05-06 13:20 | 55.25553 | -3.15617 | 15647 ft | 241 kts | 347° |
| 2026-05-06 13:20 | 55.27219 | -3.16177 | 15306 ft | 248 kts | 346° |
| 2026-05-06 13:20 | 55.28907 | -3.16719 | 15201 ft | 245 kts | 348° |
| 2026-05-06 13:21 | 55.30555 | -3.17352 | 15032 ft | 244 kts | 342° |
| 2026-05-06 13:21 | 55.32128 | -3.18398 | 14916 ft | 240 kts | 331° |
| 2026-05-06 13:21 | 55.33569 | -3.19859 | 14779 ft | 238 kts | 326° |
| 2026-05-06 13:21 | 55.34951 | -3.21394 | 14614 ft | 239 kts | 327° |
| 2026-05-06 13:22 | 55.36479 | -3.22620 | 14390 ft | 243 kts | 338° |
| 2026-05-06 13:22 | 55.38029 | -3.23689 | 14270 ft | 239 kts | 334° |
| 2026-05-06 13:22 | 55.39527 | -3.24939 | 14112 ft | 238 kts | 332° |
| 2026-05-06 13:22 | 55.40999 | -3.26256 | 13860 ft | 240 kts | 331° |
| 2026-05-06 13:23 | 55.42457 | -3.27629 | 13679 ft | 238 kts | 329° |
| 2026-05-06 13:23 | 55.43908 | -3.29024 | 13443 ft | 237 kts | 330° |
| 2026-05-06 13:23 | 55.45365 | -3.30412 | 13086 ft | 242 kts | 330° |
| 2026-05-06 13:23 | 55.46845 | -3.31784 | 12761 ft | 243 kts | 330° |
| 2026-05-06 13:24 | 55.48239 | -3.33404 | 12512 ft | 240 kts | 323° |
| 2026-05-06 13:24 | 55.49560 | -3.35169 | 12288 ft | 237 kts | 321° |
| 2026-05-06 13:24 | 55.50867 | -3.36968 | 12015 ft | 237 kts | 321° |
| 2026-05-06 13:24 | 55.52122 | -3.38800 | 11729 ft | 233 kts | 316° |
| 2026-05-06 13:25 | 55.53232 | -3.40747 | 11148 ft | 230 kts | 313° |
| 2026-05-06 13:25 | 55.54389 | -3.42799 | 10718 ft | 235 kts | 314° |
| 2026-05-06 13:25 | 55.55512 | -3.44758 | 10490 ft | 224 kts | 314° |
| 2026-05-06 13:25 | 55.56605 | -3.46698 | 10092 ft | 223 kts | 314° |
| 2026-05-06 13:26 | 55.57713 | -3.48620 | 9618 ft | 224 kts | 315° |
| 2026-05-06 13:26 | 55.58816 | -3.50518 | 9203 ft | 223 kts | 316° |
| 2026-05-06 13:26 | 55.59925 | -3.52404 | 8851 ft | 219 kts | 315° |
| 2026-05-06 13:26 | 55.61006 | -3.54282 | 8447 ft | 219 kts | 316° |
| 2026-05-06 13:27 | 55.62113 | -3.56113 | 8032 ft | 220 kts | 316° |
| 2026-05-06 13:27 | 55.63245 | -3.57923 | 7642 ft | 219 kts | 317° |
| 2026-05-06 13:27 | 55.64392 | -3.59687 | 7238 ft | 218 kts | 322° |
| 2026-05-06 13:27 | 55.65597 | -3.61308 | 6805 ft | 219 kts | 321° |
| 2026-05-06 13:28 | 55.66752 | -3.63000 | 6411 ft | 217 kts | 320° |
| 2026-05-06 13:28 | 55.67879 | -3.64760 | 6015 ft | 214 kts | 318° |
| 2026-05-06 13:28 | 55.69003 | -3.66454 | 5612 ft | 212 kts | 321° |
| 2026-05-06 13:28 | 55.70151 | -3.68043 | 5174 ft | 212 kts | 321° |
| 2026-05-06 13:29 | 55.71330 | -3.69601 | 4750 ft | 212 kts | 324° |
| 2026-05-06 13:29 | 55.72542 | -3.71068 | 4321 ft | 212 kts | 324° |
| 2026-05-06 13:29 | 55.73766 | -3.72508 | 3994 ft | 208 kts | 329° |
| 2026-05-06 13:29 | 55.74967 | -3.73885 | 3695 ft | 204 kts | 325° |